createdAt,value
2018-09-21T00:01:53.975Z,21.53
2018-09-21T00:04:25.112Z,22.53
2018-09-21T00:06:56.461Z,22.80
2018-09-21T00:09:27.917Z,21.77
2018-09-21T00:11:59.461Z,23.57
2018-09-21T00:14:30.569Z,21.43
2018-09-21T00:17:05.045Z,21.70
2018-09-21T00:19:36.094Z,23.00
2018-09-21T00:22:07.632Z,23.17
2018-09-21T00:24:38.629Z,23.23
2018-09-21T00:27:10.391Z,22.47
2018-09-21T00:29:41.393Z,22.40
2018-09-21T00:32:14.173Z,21.20
2018-09-21T00:34:45.317Z,21.43
2018-09-21T00:37:16.689Z,22.03
2018-09-21T00:39:47.814Z,23.27
2018-09-21T00:42:19.194Z,23.03
2018-09-21T00:44:50.192Z,21.43
2018-09-21T00:47:21.614Z,24.17
2018-09-21T00:49:53.125Z,22.63
2018-09-21T00:52:25.141Z,23.50
2018-09-21T00:54:56.534Z,23.00
2018-09-21T00:57:28.341Z,22.13
2018-09-21T00:59:59.781Z,23.50
2018-09-21T01:02:31.545Z,23.10
2018-09-21T01:05:03.063Z,24.60
2018-09-21T01:07:34.682Z,23.67
2018-09-21T01:10:07.277Z,23.93
2018-09-21T01:12:39.468Z,23.47
2018-09-21T01:15:10.889Z,25.77
2018-09-21T01:17:42.437Z,23.57
2018-09-21T01:20:13.749Z,24.80
2018-09-21T01:22:45.317Z,24.10
2018-09-21T01:25:16.932Z,24.77
2018-09-21T01:27:48.631Z,23.87
2018-09-21T01:30:19.989Z,23.53
2018-09-21T01:32:53.218Z,23.80
2018-09-21T01:35:25.893Z,24.40
2018-09-21T01:38:00.338Z,22.70
2018-09-21T01:40:31.773Z,25.30
2018-09-21T01:43:03.126Z,25.03
2018-09-21T01:45:34.179Z,24.43
2018-09-21T01:48:07.409Z,22.63
2018-09-21T01:50:38.803Z,23.80
2018-09-21T01:53:10.480Z,22.77
2018-09-21T01:55:41.842Z,23.00
2018-09-21T01:58:13.416Z,23.53
2018-09-21T02:00:44.950Z,24.40
2018-09-21T02:03:17.069Z,24.80
2018-09-21T02:05:49.077Z,23.50
2018-09-21T02:08:21.308Z,24.13
2018-09-21T02:10:52.689Z,22.30
2018-09-21T02:13:24.385Z,24.40
2018-09-21T02:15:55.710Z,23.23
2018-09-21T02:18:28.001Z,22.03
2018-09-21T02:20:59.433Z,23.27
2018-09-21T02:23:30.833Z,22.43
2018-09-21T02:26:03.693Z,22.87
2018-09-21T02:28:35.099Z,23.63
2018-09-21T02:31:06.264Z,23.10
2018-09-21T02:33:37.926Z,21.67
2018-09-21T02:36:09.223Z,24.73
2018-09-21T02:38:40.289Z,22.90
2018-09-21T02:41:11.420Z,21.83
2018-09-21T02:43:42.959Z,23.27
2018-09-21T02:46:13.881Z,21.70
2018-09-21T02:48:45.275Z,22.73
2018-09-21T02:51:16.529Z,21.37
2018-09-21T02:53:49.025Z,21.50
2018-09-21T02:56:21.273Z,20.50
2018-09-21T02:58:52.685Z,20.73
2018-09-21T03:01:23.688Z,20.40
2018-09-21T03:03:55.025Z,19.37
2018-09-21T03:06:25.988Z,21.03
2018-09-21T03:08:57.285Z,20.37
2018-09-21T03:11:28.856Z,19.23
2018-09-21T03:14:00.488Z,20.20
2018-09-21T03:16:48.706Z,20.20
2018-09-21T03:26:14.437Z,17.87
2018-09-21T03:28:45.748Z,18.57
2018-09-21T03:34:18.357Z,18.57
2018-09-21T03:36:49.835Z,18.27
2018-09-21T03:39:22.888Z,19.27
2018-09-21T03:41:54.994Z,18.57
2018-09-21T03:44:26.425Z,17.50
2018-09-21T03:47:10.082Z,17.17
2018-09-21T03:49:41.650Z,17.90
2018-09-21T03:52:13.543Z,17.60
2018-09-21T03:54:44.798Z,18.70
2018-09-21T03:57:16.422Z,18.27
2018-09-21T03:59:47.802Z,16.80
2018-09-21T04:02:33.057Z,17.50
2018-09-21T04:05:06.472Z,17.43
2018-09-21T04:07:40.105Z,16.80
2018-09-21T04:10:11.799Z,15.47
2018-09-21T04:12:43.350Z,16.40
2018-09-21T04:15:14.765Z,18.27
2018-09-21T04:17:46.837Z,14.77
2018-09-21T04:20:18.423Z,14.90
2018-09-21T04:22:54.889Z,15.43
2018-09-21T04:25:26.230Z,15.07
2018-09-21T04:27:59.129Z,13.87
2018-09-21T04:30:30.567Z,14.83
2018-09-21T04:33:02.342Z,14.67
2018-09-21T04:35:33.962Z,15.23
2018-09-21T04:38:06.094Z,15.70
2018-09-21T04:40:37.309Z,13.60
2018-09-21T04:43:09.117Z,14.03
2018-09-21T04:45:40.843Z,12.70
2018-09-21T04:48:12.258Z,12.43
2018-09-21T04:50:43.522Z,14.80
2018-09-21T04:53:15.230Z,13.03
2018-09-21T04:55:46.706Z,13.70
2018-09-21T04:58:18.382Z,12.20
2018-09-21T05:00:49.789Z,12.00
2018-09-21T05:03:20.948Z,12.50
2018-09-21T05:05:51.803Z,13.03
2018-09-21T05:08:23.657Z,13.03
2018-09-21T05:10:54.901Z,13.20
2018-09-21T05:13:26.493Z,12.53
2018-09-21T05:15:57.784Z,12.55
2018-09-21T05:18:29.721Z,12.82
2018-09-21T05:21:01.126Z,13.22
2018-09-21T05:23:32.937Z,12.03
2018-09-21T05:26:04.532Z,12.13
2018-09-21T05:28:36.621Z,12.00
2018-09-21T05:31:07.953Z,11.68
2018-09-21T05:33:40.369Z,11.75
2018-09-21T05:36:12.022Z,12.00
2018-09-21T05:38:43.454Z,11.78
2018-09-21T05:41:14.789Z,11.88
2018-09-21T05:43:46.772Z,11.20
2018-09-21T05:46:18.446Z,10.70
2018-09-21T05:48:50.182Z,11.90
2018-09-21T05:51:21.909Z,12.40
2018-09-21T05:53:53.564Z,11.60
2018-09-21T05:56:25.032Z,12.53
2018-09-21T05:58:57.010Z,12.63
2018-09-21T06:01:28.656Z,12.58
2018-09-21T06:04:00.725Z,11.30
2018-09-21T06:06:32.291Z,10.93
2018-09-21T06:09:04.458Z,11.38
2018-09-21T06:11:36.677Z,12.33
2018-09-21T06:14:08.586Z,10.53
2018-09-21T06:16:40.245Z,12.55
2018-09-21T06:19:12.461Z,11.45
2018-09-21T06:21:43.730Z,11.15
2018-09-21T06:24:15.544Z,11.65
2018-09-21T06:26:46.885Z,13.50
2018-09-21T06:29:19.677Z,11.70
2018-09-21T06:31:51.046Z,11.12
2018-09-21T06:34:22.698Z,10.63
2018-09-21T06:36:54.190Z,11.65
2018-09-21T06:39:26.022Z,12.23
2018-09-21T06:41:57.692Z,10.88
2018-09-21T06:44:29.691Z,12.78
2018-09-21T06:47:01.568Z,11.80
2018-09-21T06:49:33.281Z,12.53
2018-09-21T06:52:04.922Z,11.30
2018-09-21T06:54:36.468Z,10.55
2018-09-21T06:57:08.248Z,11.38
2018-09-21T06:59:40.021Z,12.43
2018-09-21T07:02:11.570Z,12.37
2018-09-21T07:04:43.614Z,11.35
2018-09-21T07:07:14.946Z,11.25
2018-09-21T07:09:47.076Z,11.30
2018-09-21T07:12:18.434Z,12.13
2018-09-21T07:14:50.027Z,10.72
2018-09-21T07:17:21.106Z,11.68
2018-09-21T07:19:53.482Z,12.82
2018-09-21T07:22:25.085Z,12.88
2018-09-21T07:24:56.653Z,14.15
2018-09-21T07:27:28.046Z,14.07
2018-09-21T07:30:00.529Z,13.30
2018-09-21T07:32:32.233Z,13.15
2018-09-21T07:35:03.328Z,12.93
2018-09-21T07:37:34.450Z,12.70
2018-09-21T07:40:06.267Z,14.28
2018-09-21T07:42:37.240Z,12.82
2018-09-21T07:45:08.314Z,12.68
2018-09-21T07:47:39.202Z,13.45
2018-09-21T07:50:10.267Z,13.68
2018-09-21T07:52:41.060Z,13.28
2018-09-21T07:55:12.434Z,14.45
2018-09-21T07:57:43.747Z,16.00
2018-09-21T08:00:16.357Z,17.05
2018-09-21T08:02:47.767Z,16.48
2018-09-21T08:05:24.047Z,14.45
2018-09-21T08:07:55.481Z,14.80
2018-09-21T08:10:27.062Z,14.87
2018-09-21T08:12:58.593Z,16.67
2018-09-21T08:15:30.567Z,15.85
2018-09-21T08:18:01.920Z,15.78
2018-09-21T08:20:33.455Z,17.15
2018-09-21T08:23:04.890Z,17.75
2018-09-21T08:25:36.531Z,15.28
2018-09-21T08:28:07.938Z,17.30
2018-09-21T08:30:40.741Z,16.45
2018-09-21T08:33:12.433Z,17.20
2018-09-21T08:35:44.150Z,16.55
2018-09-21T08:38:15.467Z,17.20
2018-09-21T08:40:47.548Z,17.83
2018-09-21T08:43:19.110Z,16.43
2018-09-21T08:45:50.698Z,16.20
2018-09-21T08:48:22.113Z,17.83
2018-09-21T08:50:53.905Z,18.70
2018-09-21T08:53:25.198Z,16.20
2018-09-21T08:55:58.143Z,17.27
2018-09-21T08:58:29.478Z,16.57
2018-09-21T09:01:01.105Z,15.67
2018-09-21T09:03:32.466Z,17.17
2018-09-21T09:06:04.631Z,16.53
2018-09-21T09:08:36.157Z,15.90
2018-09-21T09:11:07.817Z,15.87
2018-09-21T09:13:38.994Z,18.47
2018-09-21T09:16:10.869Z,16.03
2018-09-21T09:18:42.385Z,17.13
2018-09-21T09:21:13.937Z,17.50
2018-09-21T09:23:44.905Z,17.83
2018-09-21T09:26:16.322Z,17.33
2018-09-21T09:28:47.578Z,15.83
2018-09-21T09:31:20.837Z,17.50
2018-09-21T09:33:52.146Z,18.00
2018-09-21T09:36:23.906Z,17.70
2018-09-21T09:38:55.427Z,16.07
2018-09-21T09:41:26.958Z,15.60
2018-09-21T09:43:58.446Z,16.50
2018-09-21T09:46:29.841Z,17.27
2018-09-21T09:49:01.721Z,17.80
2018-09-21T09:51:33.613Z,18.93
2018-09-21T09:54:04.885Z,17.93
2018-09-21T09:56:36.594Z,18.00
2018-09-21T09:59:08.254Z,16.20
2018-09-21T10:01:39.614Z,18.70
2018-09-21T10:04:10.973Z,17.60
2018-09-21T10:06:42.743Z,16.10
2018-09-21T10:09:14.029Z,18.23
2018-09-21T10:11:45.797Z,18.13
2018-09-21T10:14:17.273Z,18.50
2018-09-21T10:16:48.678Z,17.97
2018-09-21T10:19:20.121Z,17.27
2018-09-21T10:21:52.299Z,18.97
2018-09-21T10:24:23.642Z,17.60
2018-09-21T10:26:56.578Z,20.13
2018-09-21T10:29:27.957Z,19.20
2018-09-21T10:32:01.149Z,17.27
2018-09-21T10:34:32.398Z,16.70
2018-09-21T10:37:04.241Z,16.47
2018-09-21T10:39:35.815Z,16.93
2018-09-21T10:42:07.384Z,15.80
2018-09-21T10:44:38.557Z,16.00
2018-09-21T10:47:10.164Z,15.07
2018-09-21T10:49:41.439Z,16.10
2018-09-21T10:52:13.574Z,15.00
2018-09-21T10:54:45.137Z,16.73
2018-09-21T10:57:16.577Z,16.40
2018-09-21T10:59:48.049Z,15.43
2018-09-21T11:02:19.554Z,15.13
2018-09-21T11:04:50.954Z,14.73
2018-09-21T11:07:22.837Z,14.53
2018-09-21T11:09:54.185Z,15.80
2018-09-21T11:12:26.106Z,15.17
2018-09-21T11:14:57.419Z,13.80
2018-09-21T11:17:29.166Z,15.10
2018-09-21T11:20:00.566Z,14.37
2018-09-21T11:22:32.290Z,14.53
2018-09-21T11:25:03.706Z,15.73
2018-09-21T11:27:35.753Z,15.10
2018-09-21T11:30:07.274Z,15.50
2018-09-21T11:32:39.749Z,14.30
2018-09-21T11:35:11.325Z,16.07
2018-09-21T11:37:42.971Z,15.00
2018-09-21T11:40:14.419Z,13.83
2018-09-21T11:42:46.106Z,14.40
2018-09-21T11:45:17.421Z,14.53
2018-09-21T11:47:49.482Z,16.50
2018-09-21T11:50:21.118Z,14.63
2018-09-21T11:52:52.759Z,14.63
2018-09-21T11:55:24.244Z,16.57
2018-09-21T11:57:55.942Z,17.63
2018-09-21T12:00:27.454Z,18.53
2018-09-21T12:03:00.155Z,21.00
2018-09-21T12:05:31.515Z,20.80
2018-09-21T12:08:04.044Z,20.20
2018-09-21T12:10:35.804Z,20.00
2018-09-21T12:13:07.622Z,18.03
2018-09-21T12:15:38.926Z,20.30
2018-09-21T12:18:10.717Z,18.50
2018-09-21T12:20:42.286Z,18.00
2018-09-21T12:23:13.785Z,17.10
2018-09-21T12:25:45.194Z,18.00
2018-09-21T12:28:17.143Z,17.93
2018-09-21T12:30:48.773Z,18.17
2018-09-21T12:33:21.729Z,17.70
2018-09-21T12:35:53.103Z,20.03
2018-09-21T12:38:24.934Z,17.67
2018-09-21T12:40:56.570Z,18.53
2018-09-21T12:43:28.177Z,18.70
2018-09-21T12:45:59.582Z,19.00
2018-09-21T12:48:31.399Z,19.33
2018-09-21T12:51:02.723Z,16.63
2018-09-21T12:53:34.386Z,17.17
2018-09-21T12:56:05.869Z,17.40
2018-09-21T12:58:38.355Z,17.97
2018-09-21T13:01:09.934Z,20.33
2018-09-21T13:03:41.346Z,19.30
2018-09-21T13:06:12.902Z,19.87
2018-09-21T13:08:44.866Z,19.90
2018-09-21T13:11:16.181Z,18.40
2018-09-21T13:13:48.042Z,16.80
2018-09-21T13:16:19.330Z,16.47
2018-09-21T13:18:51.056Z,16.90
2018-09-21T13:21:22.683Z,17.50
2018-09-21T13:23:54.465Z,18.20
2018-09-21T13:26:26.324Z,16.23
2018-09-21T13:28:58.138Z,19.03
2018-09-21T13:31:29.469Z,18.97
2018-09-21T13:34:02.736Z,18.60
2018-09-21T13:36:34.363Z,17.30
2018-09-21T13:39:08.246Z,18.37
2018-09-21T13:41:39.605Z,18.07
2018-09-21T13:44:11.277Z,17.80
2018-09-21T13:46:42.662Z,18.57
2018-09-21T13:49:14.421Z,19.03
2018-09-21T13:51:45.907Z,18.43
2018-09-21T13:54:18.221Z,19.63
2018-09-21T13:56:49.594Z,19.17
2018-09-21T13:59:21.316Z,19.70
2018-09-21T14:01:52.777Z,19.70
2018-09-21T14:04:24.639Z,19.70
2018-09-21T14:06:56.534Z,19.10
2018-09-21T14:09:29.845Z,21.17
2018-09-21T14:12:01.170Z,20.03
2018-09-21T14:14:33.208Z,19.40
2018-09-21T14:17:04.325Z,17.80
2018-09-21T14:19:36.013Z,19.20
2018-09-21T14:22:07.487Z,19.67
2018-09-21T14:24:39.176Z,19.63
2018-09-21T14:27:10.581Z,19.73
2018-09-21T14:29:42.022Z,18.40
2018-09-21T14:32:14.470Z,21.00
2018-09-21T14:34:47.798Z,19.00
2018-09-21T14:37:19.200Z,20.70
2018-09-21T14:39:51.018Z,19.77
2018-09-21T14:42:22.353Z,20.10
2018-09-21T14:44:54.147Z,19.13
2018-09-21T14:47:25.674Z,19.33
2018-09-21T14:49:57.659Z,19.00
2018-09-21T14:52:29.229Z,20.23
2018-09-21T14:55:01.046Z,18.53
2018-09-21T14:57:32.633Z,18.93
2018-09-21T15:00:04.541Z,20.17
2018-09-21T15:02:35.927Z,18.70
2018-09-21T15:05:07.975Z,19.00
2018-09-21T15:07:39.474Z,18.50
2018-09-21T15:10:11.230Z,19.47
2018-09-21T15:12:42.735Z,19.20
2018-09-21T15:15:14.143Z,18.87
2018-09-21T15:17:45.495Z,18.53
2018-09-21T15:20:17.730Z,19.50
2018-09-21T15:22:49.270Z,18.17
2018-09-21T15:25:20.781Z,18.10
2018-09-21T15:27:52.286Z,19.63
2018-09-21T15:30:23.858Z,19.20
2018-09-21T15:32:55.245Z,19.10
2018-09-21T15:35:28.355Z,18.40
2018-09-21T15:37:59.546Z,18.17
2018-09-21T15:40:31.217Z,19.47
2018-09-21T15:43:02.647Z,18.00
2018-09-21T15:45:34.408Z,18.00
2018-09-21T15:48:06.090Z,19.57
2018-09-21T15:50:37.593Z,17.70
2018-09-21T15:53:09.165Z,17.07
2018-09-21T15:55:40.642Z,18.17
2018-09-21T15:58:12.063Z,18.87
2018-09-21T16:00:43.982Z,18.60
2018-09-21T16:03:15.314Z,19.50
2018-09-21T16:05:46.893Z,19.60
2018-09-21T16:08:18.445Z,18.40
2018-09-21T16:10:50.290Z,18.17
2018-09-21T16:13:21.809Z,19.47
2018-09-21T16:15:53.521Z,19.33
2018-09-21T16:18:25.045Z,18.77
2018-09-21T16:20:56.925Z,18.10
2018-09-21T16:23:28.763Z,19.23
2018-09-21T16:26:00.620Z,19.30
2018-09-21T16:28:32.045Z,17.63
2018-09-21T16:31:03.539Z,18.80
2018-09-21T16:33:34.865Z,19.40
2018-09-21T16:36:08.536Z,18.00
2018-09-21T16:38:39.866Z,19.33
2018-09-21T16:41:11.840Z,19.27
2018-09-21T16:43:43.318Z,19.50
2018-09-21T16:46:14.865Z,20.23
2018-09-21T16:48:45.840Z,20.67
2018-09-21T16:51:17.468Z,20.50
2018-09-21T16:53:48.518Z,22.00
2018-09-21T16:56:19.926Z,21.97
2018-09-21T16:58:51.513Z,23.90
2018-09-21T17:01:23.312Z,23.10
2018-09-21T17:03:54.673Z,24.63
2018-09-21T17:06:26.390Z,23.97
2018-09-21T17:08:57.826Z,23.43
2018-09-21T17:11:29.689Z,22.37
2018-09-21T17:14:01.019Z,21.07
2018-09-21T17:16:32.266Z,23.10
2018-09-21T17:19:03.506Z,22.20
2018-09-21T17:21:34.910Z,20.73
2018-09-21T17:24:06.558Z,22.60
2018-09-21T17:26:38.369Z,20.93
2018-09-21T17:29:10.014Z,20.57
2018-09-21T17:31:41.813Z,22.50
2018-09-21T17:34:13.834Z,21.70
2018-09-21T17:36:46.610Z,22.30
2018-09-21T17:39:18.096Z,20.80
2018-09-21T17:41:49.688Z,21.90
2018-09-21T17:44:20.969Z,21.77
2018-09-21T17:46:52.273Z,20.80
2018-09-21T17:49:23.375Z,21.37
2018-09-21T17:51:56.180Z,19.30
2018-09-21T17:54:27.918Z,20.43
2018-09-21T17:56:59.839Z,20.67
2018-09-21T17:59:31.318Z,22.90
2018-09-21T18:02:02.735Z,21.80
2018-09-21T18:04:34.046Z,20.40
2018-09-21T18:07:05.658Z,20.90
2018-09-21T18:09:38.054Z,22.10
2018-09-21T18:12:09.674Z,19.73
2018-09-21T18:14:41.476Z,19.33
2018-09-21T18:17:13.570Z,21.73
2018-09-21T18:19:45.801Z,21.70
2018-09-21T18:22:17.565Z,21.23
2018-09-21T18:24:48.817Z,21.53
2018-09-21T18:27:19.909Z,22.30
2018-09-21T18:29:51.254Z,21.73
2018-09-21T18:32:22.917Z,22.30
2018-09-21T18:34:54.621Z,22.23
2018-09-21T18:37:27.793Z,21.07
2018-09-21T18:39:59.309Z,21.90
2018-09-21T18:42:31.134Z,21.07
2018-09-21T18:45:01.894Z,21.07
2018-09-21T18:47:33.184Z,22.70
2018-09-21T18:50:04.897Z,22.20
2018-09-21T18:52:36.703Z,22.33
2018-09-21T18:55:08.011Z,22.87
2018-09-21T18:57:39.754Z,22.43
2018-09-21T19:00:11.099Z,21.90
2018-09-21T19:02:42.700Z,22.73
2018-09-21T19:05:14.250Z,20.30
2018-09-21T19:07:45.735Z,23.00
2018-09-21T19:10:17.205Z,20.83
2018-09-21T19:12:49.585Z,21.30
2018-09-21T19:15:21.165Z,20.87
2018-09-21T19:17:52.790Z,20.10
2018-09-21T19:20:24.277Z,19.23
2018-09-21T19:22:56.050Z,21.43
2018-09-21T19:25:27.266Z,21.10
2018-09-21T19:27:58.933Z,19.00
2018-09-21T19:30:29.978Z,20.80
2018-09-21T19:33:02.171Z,21.73
2018-09-21T19:35:33.426Z,21.03
2018-09-21T19:38:06.262Z,19.70
2018-09-21T19:40:37.883Z,20.27
2018-09-21T19:43:09.835Z,21.10
2018-09-21T19:45:41.249Z,22.23
2018-09-21T19:48:12.551Z,21.47
2018-09-21T19:50:43.768Z,21.70
2018-09-21T19:53:15.166Z,23.27
2018-09-21T19:55:46.808Z,20.10
2018-09-21T19:58:18.462Z,21.53
2018-09-21T20:00:49.896Z,21.83
2018-09-21T20:03:22.248Z,21.80
2018-09-21T20:05:53.726Z,21.60
2018-09-21T20:08:25.341Z,23.97
2018-09-21T20:10:57.217Z,22.70
2018-09-21T20:13:28.965Z,22.80
2018-09-21T20:16:00.460Z,21.17
2018-09-21T20:18:32.001Z,22.57
2018-09-21T20:21:03.267Z,23.03
2018-09-21T20:23:34.753Z,23.50
2018-09-21T20:26:09.479Z,22.23
2018-09-21T20:28:41.437Z,22.70
2018-09-21T20:31:17.758Z,23.10
2018-09-21T20:33:49.535Z,22.53
2018-09-21T20:36:20.812Z,22.33
2018-09-21T20:38:54.341Z,24.93
2018-09-21T20:41:25.593Z,22.07
2018-09-21T20:43:57.278Z,24.00
2018-09-21T20:46:28.854Z,22.43
2018-09-21T20:49:00.912Z,24.80
2018-09-21T20:51:32.285Z,26.50
2018-09-21T20:54:04.023Z,23.17
2018-09-21T20:56:35.581Z,23.40
2018-09-21T20:59:07.098Z,23.87
2018-09-21T21:01:38.690Z,25.33
2018-09-21T21:04:10.222Z,25.50
2018-09-21T21:06:41.589Z,24.43
2018-09-21T21:09:13.330Z,23.00
2018-09-21T21:11:44.620Z,23.37
2018-09-21T21:14:16.396Z,22.70
2018-09-21T21:16:47.899Z,22.20
2018-09-21T21:19:19.693Z,23.10
2018-09-21T21:21:51.229Z,22.30
2018-09-21T21:24:22.774Z,23.67
2018-09-21T21:26:54.038Z,25.50
2018-09-21T21:29:26.137Z,24.97
2018-09-21T21:31:57.683Z,22.87
2018-09-21T21:34:29.545Z,24.33
2018-09-21T21:37:00.961Z,24.60
2018-09-21T21:39:33.790Z,24.70
2018-09-21T21:42:05.185Z,24.37
2018-09-21T21:44:36.909Z,23.47
2018-09-21T21:47:08.261Z,22.40
2018-09-21T21:49:40.102Z,24.07
2018-09-21T21:52:11.641Z,24.90
2018-09-21T21:54:43.717Z,20.13
2018-09-21T21:57:15.065Z,22.00
2018-09-21T21:59:46.909Z,21.90
2018-09-21T22:02:18.618Z,23.37
2018-09-21T22:04:50.246Z,24.70
2018-09-21T22:07:21.666Z,22.17
2018-09-21T22:09:53.489Z,22.30
2018-09-21T22:12:29.534Z,24.47
2018-09-21T22:15:01.542Z,23.00
2018-09-21T22:17:33.010Z,23.70
2018-09-21T22:20:04.888Z,23.57
2018-09-21T22:22:36.177Z,22.80
2018-09-21T22:25:10.205Z,21.93
2018-09-21T22:27:41.701Z,24.20
2018-09-21T22:30:13.510Z,23.17
2018-09-21T22:32:44.736Z,23.20
2018-09-21T22:35:16.458Z,22.73
2018-09-21T22:37:48.109Z,23.87
2018-09-21T22:40:20.600Z,24.43
2018-09-21T22:42:51.848Z,23.80
2018-09-21T22:45:23.808Z,24.93
2018-09-21T22:47:55.349Z,22.50
2018-09-21T22:50:26.843Z,24.10
2018-09-21T22:52:58.286Z,24.63
2018-09-21T22:55:30.021Z,24.27
2018-09-21T22:58:04.529Z,23.87
2018-09-21T23:00:36.189Z,24.03
2018-09-21T23:03:07.776Z,23.20
2018-09-21T23:05:39.282Z,23.23
2018-09-21T23:08:11.294Z,23.67
2018-09-21T23:10:43.010Z,24.40
2018-09-21T23:13:14.422Z,24.47
2018-09-21T23:15:45.853Z,24.20
2018-09-21T23:18:17.266Z,24.93
2018-09-21T23:20:49.265Z,24.87
2018-09-21T23:23:20.702Z,24.73
2018-09-21T23:25:52.286Z,24.37
2018-09-21T23:28:23.708Z,24.13
2018-09-21T23:30:55.283Z,22.93
2018-09-21T23:33:27.036Z,23.67
2018-09-21T23:35:58.626Z,25.47
2018-09-21T23:38:30.225Z,25.67
2018-09-21T23:41:03.601Z,22.83
2018-09-21T23:43:34.897Z,24.97
2018-09-21T23:46:07.419Z,24.27
2018-09-21T23:48:39.038Z,26.80
2018-09-21T23:51:12.181Z,24.87
2018-09-21T23:53:43.349Z,24.03
2018-09-21T23:56:15.154Z,24.70
2018-09-21T23:58:46.392Z,24.80
